sensor_id;sensor_type;location;lat;lon;timestamp;pressure;altitude;pressure_sealevel;temperature;humidity
67931;BME280;63902;52.000;5.954;2023-03-04T00:00:13;102216.28;;;4.07;82.97
67931;BME280;63902;52.000;5.954;2023-03-04T00:01:14;102223.25;;;4.04;82.74
67931;BME280;63902;52.000;5.954;2023-03-04T00:02:14;102217.13;;;4.07;82.81
67931;BME280;63902;52.000;5.954;2023-03-04T00:03:15;102222.38;;;4.09;82.65
67931;BME280;63902;52.000;5.954;2023-03-04T00:04:17;102223.25;;;4.06;82.44
67931;BME280;63902;52.000;5.954;2023-03-04T00:05:18;102204.81;;;3.95;82.76
67931;BME280;63902;52.000;5.954;2023-03-04T00:06:18;102222.41;;;4.07;82.81
67931;BME280;63902;52.000;5.954;2023-03-04T00:07:18;102227.66;;;4.07;82.65
67931;BME280;63902;52.000;5.954;2023-03-04T00:08:19;102224.16;;;4.07;82.98
67931;BME280;63902;52.000;5.954;2023-03-04T00:09:19;102222.41;;;4.07;82.86
67931;BME280;63902;52.000;5.954;2023-03-04T00:10:20;102203.91;;;3.95;82.76
67931;BME280;63902;52.000;5.954;2023-03-04T00:11:20;102215.31;;;4.00;82.48
67931;BME280;63902;52.000;5.954;2023-03-04T00:12:21;102229.41;;;4.07;82.87
67931;BME280;63902;52.000;5.954;2023-03-04T00:13:21;102229.41;;;4.07;82.81
67931;BME280;63902;52.000;5.954;2023-03-04T00:14:22;102225.84;;;4.03;82.47
67931;BME280;63902;52.000;5.954;2023-03-04T00:15:22;102225.00;;;4.06;82.86
67931;BME280;63902;52.000;5.954;2023-03-04T00:16:23;102218.88;;;4.05;82.75
67931;BME280;63902;52.000;5.954;2023-03-04T00:17:24;102216.19;;;4.00;82.77
67931;BME280;63902;52.000;5.954;2023-03-04T00:18:24;102227.63;;;4.04;83.13
67931;BME280;63902;52.000;5.954;2023-03-04T00:19:26;102225.84;;;4.03;83.12
67931;BME280;63902;52.000;5.954;2023-03-04T00:20:26;102227.63;;;4.04;83.26
67931;BME280;63902;52.000;5.954;2023-03-04T00:21:27;102228.50;;;4.04;82.99
67931;BME280;63902;52.000;5.954;2023-03-04T00:22:27;102223.25;;;4.06;83.29
67931;BME280;63902;52.000;5.954;2023-03-04T00:23:28;102216.22;;;4.02;83.08
67931;BME280;63902;52.000;5.954;2023-03-04T00:24:28;102223.25;;;4.06;83.07
67931;BME280;63902;52.000;5.954;2023-03-04T00:25:29;102217.13;;;4.04;82.83
67931;BME280;63902;52.000;5.954;2023-03-04T00:26:29;102224.16;;;4.07;83.21
67931;BME280;63902;52.000;5.954;2023-03-04T00:27:30;102224.13;;;4.08;82.95
67931;BME280;63902;52.000;5.954;2023-03-04T00:28:30;102198.66;;;3.96;83.01
67931;BME280;63902;52.000;5.954;2023-03-04T00:29:31;102215.34;;;4.03;82.97
67931;BME280;63902;52.000;5.954;2023-03-04T00:30:31;102204.81;;;3.95;83.05
67931;BME280;63902;52.000;5.954;2023-03-04T00:31:32;102221.53;;;4.07;82.65
67931;BME280;63902;52.000;5.954;2023-03-04T00:32:32;102216.22;;;4.02;82.88
67931;BME280;63902;52.000;5.954;2023-03-04T00:33:33;102220.63;;;4.06;82.91
67931;BME280;63902;52.000;5.954;2023-03-04T00:34:35;102218.88;;;4.05;83.09
67931;BME280;63902;52.000;5.954;2023-03-04T00:35:35;102222.38;;;4.06;82.91
67931;BME280;63902;52.000;5.954;2023-03-04T00:36:36;102218.84;;;4.02;83.19
67931;BME280;63902;52.000;5.954;2023-03-04T00:37:36;102222.41;;;4.07;83.20
67931;BME280;63902;52.000;5.954;2023-03-04T00:38:37;102208.31;;;3.96;83.02
67931;BME280;63902;52.000;5.954;2023-03-04T00:39:38;102223.25;;;4.04;83.13
67931;BME280;63902;52.000;5.954;2023-03-04T00:40:38;102221.50;;;4.05;82.90
67931;BME280;63902;52.000;5.954;2023-03-04T00:41:39;102213.63;;;4.03;82.93
67931;BME280;63902;52.000;5.954;2023-03-04T00:42:39;102214.44;;;3.99;83.19
67931;BME280;63902;52.000;5.954;2023-03-04T00:43:40;102213.63;;;4.03;83.13
67931;BME280;63902;52.000;5.954;2023-03-04T00:44:40;102215.34;;;4.01;83.12
67931;BME280;63902;52.000;5.954;2023-03-04T00:45:40;102218.88;;;4.03;83.22
67931;BME280;63902;52.000;5.954;2023-03-04T00:46:41;102212.72;;;4.03;83.33
67931;BME280;63902;52.000;5.954;2023-03-04T00:47:41;102212.69;;;4.00;82.86
67931;BME280;63902;52.000;5.954;2023-03-04T00:48:42;102216.22;;;4.02;83.12
67931;BME280;63902;52.000;5.954;2023-03-04T00:49:44;102210.09;;;4.03;82.97
67931;BME280;63902;52.000;5.954;2023-03-04T00:50:44;102216.22;;;4.02;83.21
67931;BME280;63902;52.000;5.954;2023-03-04T00:51:45;102208.31;;;3.99;83.17
67931;BME280;63902;52.000;5.954;2023-03-04T00:52:45;102205.69;;;3.99;83.51
67931;BME280;63902;52.000;5.954;2023-03-04T00:53:45;102214.44;;;3.99;83.68
67931;BME280;63902;52.000;5.954;2023-03-04T00:54:46;102215.38;;;4.04;83.55
67931;BME280;63902;52.000;5.954;2023-03-04T00:55:46;102219.75;;;4.04;83.60
67931;BME280;63902;52.000;5.954;2023-03-04T00:56:47;102217.13;;;4.04;83.48
67931;BME280;63902;52.000;5.954;2023-03-04T00:57:47;102212.72;;;4.03;83.21
67931;BME280;63902;52.000;5.954;2023-03-04T00:58:48;102222.34;;;4.02;83.23
67931;BME280;63902;52.000;5.954;2023-03-04T00:59:48;102217.97;;;4.03;83.22
67931;BME280;63902;52.000;5.954;2023-03-04T01:00:49;102212.69;;;4.00;83.66
67931;BME280;63902;52.000;5.954;2023-03-04T01:01:49;102221.47;;;4.02;83.56
67931;BME280;63902;52.000;5.954;2023-03-04T01:02:50;102217.09;;;4.01;83.52
67931;BME280;63902;52.000;5.954;2023-03-04T01:03:50;102214.47;;;4.01;83.44
67931;BME280;63902;52.000;5.954;2023-03-04T01:04:52;102213.53;;;3.97;83.58
67931;BME280;63902;52.000;5.954;2023-03-04T01:05:52;102219.72;;;4.01;83.51
67931;BME280;63902;52.000;5.954;2023-03-04T01:06:53;102218.81;;;4.00;83.65
67931;BME280;63902;52.000;5.954;2023-03-04T01:07:53;102214.44;;;3.98;83.20
67931;BME280;63902;52.000;5.954;2023-03-04T01:08:54;102191.56;;;3.85;83.43
67931;BME280;63902;52.000;5.954;2023-03-04T01:09:54;102218.81;;;3.99;83.75
67931;BME280;63902;52.000;5.954;2023-03-04T01:10:55;102223.19;;;4.00;83.46
67931;BME280;63902;52.000;5.954;2023-03-04T01:11:55;102213.56;;;4.00;83.74
67931;BME280;63902;52.000;5.954;2023-03-04T01:12:56;102222.34;;;4.01;83.66
67931;BME280;63902;52.000;5.954;2023-03-04T01:13:56;102218.81;;;4.00;83.66
67931;BME280;63902;52.000;5.954;2023-03-04T01:14:57;102220.59;;;4.01;83.53
67931;BME280;63902;52.000;5.954;2023-03-04T01:15:57;102215.34;;;4.01;83.62
67931;BME280;63902;52.000;5.954;2023-03-04T01:16:58;102214.44;;;3.99;83.45
67931;BME280;63902;52.000;5.954;2023-03-04T01:17:58;102198.59;;;3.89;83.69
67931;BME280;63902;52.000;5.954;2023-03-04T01:18:59;102213.56;;;3.99;83.51
67931;BME280;63902;52.000;5.954;2023-03-04T01:20:01;102211.81;;;3.98;83.80
67931;BME280;63902;52.000;5.954;2023-03-04T01:21:01;102217.09;;;4.01;83.84
67931;BME280;63902;52.000;5.954;2023-03-04T01:22:02;102200.41;;;3.93;83.77
67931;BME280;63902;52.000;5.954;2023-03-04T01:23:02;102208.31;;;3.99;83.61
67931;BME280;63902;52.000;5.954;2023-03-04T01:24:04;102210.06;;;3.98;83.67
67931;BME280;63902;52.000;5.954;2023-03-04T01:25:05;102216.19;;;3.99;83.74
67931;BME280;63902;52.000;5.954;2023-03-04T01:26:06;102211.81;;;3.99;83.86
67931;BME280;63902;52.000;5.954;2023-03-04T01:27:06;102208.31;;;3.99;84.08
67931;BME280;63902;52.000;5.954;2023-03-04T01:28:07;102202.16;;;3.97;84.17
67931;BME280;63902;52.000;5.954;2023-03-04T01:29:07;102206.56;;;3.99;84.25
67931;BME280;63902;52.000;5.954;2023-03-04T01:30:09;102208.31;;;3.99;83.85
67931;BME280;63902;52.000;5.954;2023-03-04T01:31:10;102208.31;;;4.00;84.11
67931;BME280;63902;52.000;5.954;2023-03-04T01:32:10;102202.19;;;3.98;83.97
67931;BME280;63902;52.000;5.954;2023-03-04T01:33:11;102194.28;;;3.92;83.74
67931;BME280;63902;52.000;5.954;2023-03-04T01:34:11;102207.44;;;3.98;83.88
67931;BME280;63902;52.000;5.954;2023-03-04T01:35:13;102201.31;;;3.98;83.97
67931;BME280;63902;52.000;5.954;2023-03-04T01:36:14;102203.94;;;3.99;83.84
67931;BME280;63902;52.000;5.954;2023-03-04T01:37:14;102203.03;;;3.97;84.18
67931;BME280;63902;52.000;5.954;2023-03-04T01:38:15;102201.31;;;3.99;84.26
67931;BME280;63902;52.000;5.954;2023-03-04T01:39:15;102188.13;;;3.95;84.16
67931;BME280;63902;52.000;5.954;2023-03-04T01:40:16;102201.34;;;4.01;84.17
67931;BME280;63902;52.000;5.954;2023-03-04T01:41:22;102195.19;;;3.99;83.89
67931;BME280;63902;52.000;5.954;2023-03-04T01:42:25;102201.31;;;3.99;84.13
67931;BME280;63902;52.000;5.954;2023-03-04T01:43:28;102198.69;;;3.99;84.33
67931;BME280;63902;52.000;5.954;2023-03-04T01:44:29;102196.09;;;4.01;84.53
67931;BME280;63902;52.000;5.954;2023-03-04T01:45:30;102198.72;;;4.01;84.23
67931;BME280;63902;52.000;5.954;2023-03-04T01:46:32;102203.06;;;4.00;84.29
67931;BME280;63902;52.000;5.954;2023-03-04T01:47:34;102175.91;;;3.94;84.01
67931;BME280;63902;52.000;5.954;2023-03-04T01:48:36;102193.44;;;3.99;84.06
67931;BME280;63902;52.000;5.954;2023-03-04T01:49:38;102178.50;;;3.91;84.41
67931;BME280;63902;52.000;5.954;2023-03-04T01:50:40;102190.81;;;3.98;84.30
67931;BME280;63902;52.000;5.954;2023-03-04T01:51:41;102185.53;;;3.95;84.20
67931;BME280;63902;52.000;5.954;2023-03-04T01:52:42;102182.03;;;3.96;84.06
67931;BME280;63902;52.000;5.954;2023-03-04T01:53:43;102186.41;;;3.97;84.41
67931;BME280;63902;52.000;5.954;2023-03-04T01:54:45;102189.03;;;3.97;84.30
67931;BME280;63902;52.000;5.954;2023-03-04T01:55:46;102186.41;;;3.97;84.41
67931;BME280;63902;52.000;5.954;2023-03-04T01:56:49;102179.41;;;3.93;84.31
67931;BME280;63902;52.000;5.954;2023-03-04T01:57:50;102189.94;;;3.96;84.38
67931;BME280;63902;52.000;5.954;2023-03-04T01:59:08;102189.91;;;3.94;84.60
67931;BME280;63902;52.000;5.954;2023-03-04T02:00:21;102182.91;;;3.95;84.22
67931;BME280;63902;52.000;5.954;2023-03-04T02:01:22;102177.66;;;3.95;84.46
67931;BME280;63902;52.000;5.954;2023-03-04T02:02:22;102173.28;;;3.95;84.70
67931;BME280;63902;52.000;5.954;2023-03-04T02:03:24;102179.41;;;3.96;84.76
67931;BME280;63902;52.000;5.954;2023-03-04T02:04:26;102174.16;;;3.96;84.35
67931;BME280;63902;52.000;5.954;2023-03-04T02:05:27;102169.78;;;3.93;84.84
67931;BME280;63902;52.000;5.954;2023-03-04T02:06:30;102177.66;;;3.95;84.70
67931;BME280;63902;52.000;5.954;2023-03-04T02:07:31;102174.16;;;3.96;84.42
67931;BME280;63902;52.000;5.954;2023-03-04T02:08:31;102175.03;;;3.96;84.73
67931;BME280;63902;52.000;5.954;2023-03-04T02:09:34;102170.66;;;3.97;84.51
67931;BME280;63902;52.000;5.954;2023-03-04T02:10:35;102169.78;;;3.96;84.75
67931;BME280;63902;52.000;5.954;2023-03-04T02:11:37;102163.66;;;3.96;84.41
67931;BME280;63902;52.000;5.954;2023-03-04T02:12:38;102166.28;;;3.97;84.35
67931;BME280;63902;52.000;5.954;2023-03-04T02:13:39;102167.13;;;3.95;84.49
67931;BME280;63902;52.000;5.954;2023-03-04T02:14:40;102157.47;;;3.89;84.31
67931;BME280;63902;52.000;5.954;2023-03-04T02:15:41;102154.00;;;3.90;84.26
67931;BME280;63902;52.000;5.954;2023-03-04T02:16:42;102158.41;;;3.94;84.27
67931;BME280;63902;52.000;5.954;2023-03-04T02:17:43;102158.38;;;3.91;84.75
67931;BME280;63902;52.000;5.954;2023-03-04T02:18:43;102160.16;;;3.94;85.07
67931;BME280;63902;52.000;5.954;2023-03-04T02:19:49;102160.16;;;3.94;84.88
67931;BME280;63902;52.000;5.954;2023-03-04T02:20:59;102168.03;;;3.94;84.50
67931;BME280;63902;52.000;5.954;2023-03-04T02:22:05;102156.66;;;3.95;84.33
67931;BME280;63902;52.000;5.954;2023-03-04T02:23:08;102160.16;;;3.94;84.71
67931;BME280;63902;52.000;5.954;2023-03-04T02:24:14;102167.16;;;3.93;84.35
67931;BME280;63902;52.000;5.954;2023-03-04T02:25:21;102151.34;;;3.89;85.03
67931;BME280;63902;52.000;5.954;2023-03-04T02:26:25;102162.78;;;3.92;84.89
67931;BME280;63902;52.000;5.954;2023-03-04T02:27:26;102159.25;;;3.90;84.61
67931;BME280;63902;52.000;5.954;2023-03-04T02:28:27;102159.28;;;3.93;85.06
67931;BME280;63902;52.000;5.954;2023-03-04T02:29:27;102168.03;;;3.94;85.24
67931;BME280;63902;52.000;5.954;2023-03-04T02:30:28;102146.94;;;3.86;84.57
67931;BME280;63902;52.000;5.954;2023-03-04T02:31:31;102154.91;;;3.94;84.65
67931;BME280;63902;52.000;5.954;2023-03-04T02:32:32;102154.91;;;3.95;84.24
67931;BME280;63902;52.000;5.954;2023-03-04T02:33:33;102156.66;;;3.95;84.42
67931;BME280;63902;52.000;5.954;2023-03-04T02:34:34;102153.16;;;3.93;84.40
67931;BME280;63902;52.000;5.954;2023-03-04T02:35:35;102154.00;;;3.90;84.21
67931;BME280;63902;52.000;5.954;2023-03-04T02:36:35;102155.78;;;3.93;84.32
67931;BME280;63902;52.000;5.954;2023-03-04T02:37:36;102154.03;;;3.93;84.66
67931;BME280;63902;52.000;5.954;2023-03-04T02:38:37;102154.91;;;3.94;84.47
67931;BME280;63902;52.000;5.954;2023-03-04T02:39:40;102150.53;;;3.93;84.39
67931;BME280;63902;52.000;5.954;2023-03-04T02:40:43;102151.41;;;3.93;84.39
67931;BME280;63902;52.000;5.954;2023-03-04T02:41:48;102141.72;;;3.89;84.48
67931;BME280;63902;52.000;5.954;2023-03-04T02:42:49;102148.78;;;3.93;84.64
67931;BME280;63902;52.000;5.954;2023-03-04T02:43:53;102145.28;;;3.93;84.32
67931;BME280;63902;52.000;5.954;2023-03-04T02:44:58;102148.78;;;3.93;84.09
67931;BME280;63902;52.000;5.954;2023-03-04T02:45:59;102140.88;;;3.92;84.46
67931;BME280;63902;52.000;5.954;2023-03-04T02:47:00;102137.38;;;3.90;84.25
67931;BME280;63902;52.000;5.954;2023-03-04T02:48:01;102144.38;;;3.91;84.39
67931;BME280;63902;52.000;5.954;2023-03-04T02:49:01;102143.50;;;3.92;84.37
67931;BME280;63902;52.000;5.954;2023-03-04T02:50:02;102131.22;;;3.86;84.40
67931;BME280;63902;52.000;5.954;2023-03-04T02:51:03;102140.00;;;3.91;84.16
67931;BME280;63902;52.000;5.954;2023-03-04T02:52:06;102138.25;;;3.90;84.14
67931;BME280;63902;52.000;5.954;2023-03-04T02:53:07;102139.97;;;3.88;84.18
67931;BME280;63902;52.000;5.954;2023-03-04T02:54:14;102135.63;;;3.90;84.49
67931;BME280;63902;52.000;5.954;2023-03-04T02:55:15;102139.13;;;3.91;84.54
67931;BME280;63902;52.000;5.954;2023-03-04T02:56:15;102138.25;;;3.92;84.16
67931;BME280;63902;52.000;5.954;2023-03-04T02:57:17;102126.81;;;3.84;84.24
67931;BME280;63902;52.000;5.954;2023-03-04T02:58:18;102140.00;;;3.91;84.30
67931;BME280;63902;52.000;5.954;2023-03-04T02:59:19;102125.97;;;3.85;84.66
67931;BME280;63902;52.000;5.954;2023-03-04T03:00:20;102127.72;;;3.89;84.42
67931;BME280;63902;52.000;5.954;2023-03-04T03:01:21;102136.47;;;3.89;84.41
67931;BME280;63902;52.000;5.954;2023-03-04T03:02:21;102125.06;;;3.83;84.59
67931;BME280;63902;52.000;5.954;2023-03-04T03:03:22;102131.25;;;3.91;84.13
67931;BME280;63902;52.000;5.954;2023-03-04T03:04:23;102133.88;;;3.91;84.06
67931;BME280;63902;52.000;5.954;2023-03-04T03:05:26;102127.75;;;3.92;84.34
67931;BME280;63902;52.000;5.954;2023-03-04T03:06:27;102128.59;;;3.89;84.31
67931;BME280;63902;52.000;5.954;2023-03-04T03:07:27;102126.03;;;3.94;84.06
67931;BME280;63902;52.000;5.954;2023-03-04T03:08:28;102118.09;;;3.88;84.00
67931;BME280;63902;52.000;5.954;2023-03-04T03:09:28;102130.38;;;3.92;84.14
67931;BME280;63902;52.000;5.954;2023-03-04T03:10:29;102122.50;;;3.92;83.92
67931;BME280;63902;52.000;5.954;2023-03-04T03:11:29;102119.00;;;3.87;84.16
67931;BME280;63902;52.000;5.954;2023-03-04T03:12:31;102126.00;;;3.91;83.71
67931;BME280;63902;52.000;5.954;2023-03-04T03:13:32;102121.63;;;3.90;83.64
67931;BME280;63902;52.000;5.954;2023-03-04T03:14:32;102119.00;;;3.91;83.87
67931;BME280;63902;52.000;5.954;2023-03-04T03:15:33;102114.63;;;3.90;84.08
67931;BME280;63902;52.000;5.954;2023-03-04T03:16:33;102117.25;;;3.90;84.22
67931;BME280;63902;52.000;5.954;2023-03-04T03:17:34;102116.38;;;3.90;83.92
67931;BME280;63902;52.000;5.954;2023-03-04T03:18:34;102109.34;;;3.84;84.03
67931;BME280;63902;52.000;5.954;2023-03-04T03:19:35;102114.59;;;3.89;84.25
67931;BME280;63902;52.000;5.954;2023-03-04T03:20:35;102117.25;;;3.87;83.93
67931;BME280;63902;52.000;5.954;2023-03-04T03:21:36;102118.97;;;3.88;84.17
67931;BME280;63902;52.000;5.954;2023-03-04T03:22:37;102112.88;;;3.88;84.31
67931;BME280;63902;52.000;5.954;2023-03-04T03:23:37;102109.38;;;3.87;84.18
67931;BME280;63902;52.000;5.954;2023-03-04T03:24:38;102110.25;;;3.88;83.96
67931;BME280;63902;52.000;5.954;2023-03-04T03:25:38;102101.44;;;3.83;84.25
67931;BME280;63902;52.000;5.954;2023-03-04T03:26:39;102112.88;;;3.88;84.00
67931;BME280;63902;52.000;5.954;2023-03-04T03:27:41;102111.13;;;3.87;84.12
67931;BME280;63902;52.000;5.954;2023-03-04T03:28:42;102101.44;;;3.81;84.21
67931;BME280;63902;52.000;5.954;2023-03-04T03:29:42;102104.94;;;3.83;84.25
67931;BME280;63902;52.000;5.954;2023-03-04T03:30:43;102101.47;;;3.84;84.09
67931;BME280;63902;52.000;5.954;2023-03-04T03:31:43;102104.97;;;3.86;84.49
67931;BME280;63902;52.000;5.954;2023-03-04T03:32:44;102103.25;;;3.87;84.13
67931;BME280;63902;52.000;5.954;2023-03-04T03:33:44;102109.38;;;3.87;84.01
67931;BME280;63902;52.000;5.954;2023-03-04T03:34:45;102091.81;;;3.81;84.22
67931;BME280;63902;52.000;5.954;2023-03-04T03:35:45;102094.44;;;3.81;84.28
67931;BME280;63902;52.000;5.954;2023-03-04T03:36:46;102102.34;;;3.86;84.62
67931;BME280;63902;52.000;5.954;2023-03-04T03:37:46;102098.84;;;3.84;84.32
67931;BME280;63902;52.000;5.954;2023-03-04T03:38:47;102097.94;;;3.84;84.29
67931;BME280;63902;52.000;5.954;2023-03-04T03:39:47;102102.31;;;3.83;84.45
67931;BME280;63902;52.000;5.954;2023-03-04T03:40:48;102097.94;;;3.84;84.42
67931;BME280;63902;52.000;5.954;2023-03-04T03:41:48;102100.56;;;3.84;84.13
67931;BME280;63902;52.000;5.954;2023-03-04T03:42:50;102103.19;;;3.84;84.25
67931;BME280;63902;52.000;5.954;2023-03-04T03:43:51;102099.66;;;3.80;84.31
67931;BME280;63902;52.000;5.954;2023-03-04T03:44:51;102104.09;;;3.84;84.32
67931;BME280;63902;52.000;5.954;2023-03-04T03:45:51;102111.97;;;3.84;84.51
67931;BME280;63902;52.000;5.954;2023-03-04T03:46:52;102104.06;;;3.83;84.17
67931;BME280;63902;52.000;5.954;2023-03-04T03:47:52;102104.94;;;3.83;84.62
67931;BME280;63902;52.000;5.954;2023-03-04T03:48:53;102096.16;;;3.76;84.38
67931;BME280;63902;52.000;5.954;2023-03-04T03:49:53;102105.81;;;3.84;84.73
67931;BME280;63902;52.000;5.954;2023-03-04T03:50:54;102104.91;;;3.80;84.50
67931;BME280;63902;52.000;5.954;2023-03-04T03:51:54;102106.69;;;3.83;84.78
67931;BME280;63902;52.000;5.954;2023-03-04T03:52:55;102109.31;;;3.83;84.76
67931;BME280;63902;52.000;5.954;2023-03-04T03:53:55;102097.91;;;3.77;84.80
67931;BME280;63902;52.000;5.954;2023-03-04T03:54:56;102104.06;;;3.83;84.44
67931;BME280;63902;52.000;5.954;2023-03-04T03:55:56;102108.41;;;3.80;84.83
67931;BME280;63902;52.000;5.954;2023-03-04T03:56:57;102111.03;;;3.80;84.58
67931;BME280;63902;52.000;5.954;2023-03-04T03:57:59;102110.16;;;3.80;84.64
67931;BME280;63902;52.000;5.954;2023-03-04T03:58:59;102108.41;;;3.80;84.73
67931;BME280;63902;52.000;5.954;2023-03-04T04:00:01;102108.41;;;3.80;84.84
67931;BME280;63902;52.000;5.954;2023-03-04T04:01:02;102102.31;;;3.78;84.61
67931;BME280;63902;52.000;5.954;2023-03-04T04:02:02;102107.53;;;3.80;84.78
67931;BME280;63902;52.000;5.954;2023-03-04T04:03:03;102101.44;;;3.81;84.65
67931;BME280;63902;52.000;5.954;2023-03-04T04:04:03;102111.94;;;3.81;84.94
67931;BME280;63902;52.000;5.954;2023-03-04T04:05:05;102104.91;;;3.80;84.61
67931;BME280;63902;52.000;5.954;2023-03-04T04:06:06;102110.19;;;3.81;84.61
67931;BME280;63902;52.000;5.954;2023-03-04T04:07:06;102105.78;;;3.80;84.96
67931;BME280;63902;52.000;5.954;2023-03-04T04:08:10;102104.91;;;3.80;84.91
67931;BME280;63902;52.000;5.954;2023-03-04T04:09:10;102111.03;;;3.80;84.74
67931;BME280;63902;52.000;5.954;2023-03-04T04:10:11;102104.94;;;3.78;85.00
67931;BME280;63902;52.000;5.954;2023-03-04T04:11:12;102104.91;;;3.77;84.78
67931;BME280;63902;52.000;5.954;2023-03-04T04:12:17;102114.53;;;3.79;84.71
67931;BME280;63902;52.000;5.954;2023-03-04T04:13:19;102111.91;;;3.79;84.67
67931;BME280;63902;52.000;5.954;2023-03-04T04:14:20;102109.28;;;3.79;85.15
67931;BME280;63902;52.000;5.954;2023-03-04T04:15:20;102105.78;;;3.77;85.27
67931;BME280;63902;52.000;5.954;2023-03-04T04:16:20;102082.06;;;3.65;85.09
67931;BME280;63902;52.000;5.954;2023-03-04T04:17:21;102106.69;;;3.79;85.03
67931;BME280;63902;52.000;5.954;2023-03-04T04:18:21;102109.28;;;3.79;84.89
67931;BME280;63902;52.000;5.954;2023-03-04T04:19:22;102107.56;;;3.78;85.20
67931;BME280;63902;52.000;5.954;2023-03-04T04:20:22;102108.41;;;3.80;85.06
67931;BME280;63902;52.000;5.954;2023-03-04T04:21:23;102111.94;;;3.81;85.23
67931;BME280;63902;52.000;5.954;2023-03-04T04:22:23;102106.69;;;3.79;85.54
67931;BME280;63902;52.000;5.954;2023-03-04T04:23:24;102112.78;;;3.80;85.33
67931;BME280;63902;52.000;5.954;2023-03-04T04:24:24;102103.16;;;3.76;85.39
67931;BME280;63902;52.000;5.954;2023-03-04T04:25:25;102096.16;;;3.76;85.40
67931;BME280;63902;52.000;5.954;2023-03-04T04:26:25;102103.16;;;3.77;84.99
67931;BME280;63902;52.000;5.954;2023-03-04T04:27:26;102095.28;;;3.76;85.04
67931;BME280;63902;52.000;5.954;2023-03-04T04:28:28;102102.31;;;3.78;85.09
67931;BME280;63902;52.000;5.954;2023-03-04T04:29:28;102103.19;;;3.79;85.03
67931;BME280;63902;52.000;5.954;2023-03-04T04:30:29;102103.19;;;3.79;85.01
67931;BME280;63902;52.000;5.954;2023-03-04T04:31:30;102094.41;;;3.75;85.28
67931;BME280;63902;52.000;5.954;2023-03-04T04:32:30;102099.66;;;3.80;85.01
67931;BME280;63902;52.000;5.954;2023-03-04T04:33:31;102100.56;;;3.82;84.86
67931;BME280;63902;52.000;5.954;2023-03-04T04:34:31;102095.28;;;3.77;84.93
67931;BME280;63902;52.000;5.954;2023-03-04T04:35:34;102103.19;;;3.84;84.72
67931;BME280;63902;52.000;5.954;2023-03-04T04:36:34;102103.16;;;3.80;84.66
67931;BME280;63902;52.000;5.954;2023-03-04T04:37:35;102082.16;;;3.73;84.80
67931;BME280;63902;52.000;5.954;2023-03-04T04:38:36;102107.56;;;3.81;84.52
67931;BME280;63902;52.000;5.954;2023-03-04T04:39:36;102091.78;;;3.75;84.81
67931;BME280;63902;52.000;5.954;2023-03-04T04:40:37;102098.75;;;3.73;84.78
67931;BME280;63902;52.000;5.954;2023-03-04T04:41:39;102104.06;;;3.79;84.61
67931;BME280;63902;52.000;5.954;2023-03-04T04:42:40;102109.28;;;3.79;84.65
67931;BME280;63902;52.000;5.954;2023-03-04T04:43:42;102101.44;;;3.79;84.84
67931;BME280;63902;52.000;5.954;2023-03-04T04:44:42;102104.06;;;3.79;84.68
67931;BME280;63902;52.000;5.954;2023-03-04T04:45:43;102108.41;;;3.80;84.89
67931;BME280;63902;52.000;5.954;2023-03-04T04:46:43;102083.84;;;3.68;85.11
67931;BME280;63902;52.000;5.954;2023-03-04T04:47:43;102109.28;;;3.79;84.92
67931;BME280;63902;52.000;5.954;2023-03-04T04:48:44;102104.06;;;3.79;85.13
67931;BME280;63902;52.000;5.954;2023-03-04T04:49:45;102109.28;;;3.78;84.93
67931;BME280;63902;52.000;5.954;2023-03-04T04:50:45;102106.63;;;3.75;85.20
67931;BME280;63902;52.000;5.954;2023-03-04T04:51:46;102108.44;;;3.79;85.03
67931;BME280;63902;52.000;5.954;2023-03-04T04:52:46;102107.56;;;3.78;85.03
67931;BME280;63902;52.000;5.954;2023-03-04T04:53:47;102114.53;;;3.78;85.17
67931;BME280;63902;52.000;5.954;2023-03-04T04:54:48;102100.47;;;3.68;85.32
67931;BME280;63902;52.000;5.954;2023-03-04T04:55:48;102099.63;;;3.71;85.54
67931;BME280;63902;52.000;5.954;2023-03-04T04:56:49;102101.34;;;3.72;86.30
67931;BME280;63902;52.000;5.954;2023-03-04T04:57:49;102115.44;;;3.78;85.45
67931;BME280;63902;52.000;5.954;2023-03-04T04:58:52;102116.28;;;3.77;85.77
67931;BME280;63902;52.000;5.954;2023-03-04T04:59:53;102117.16;;;3.76;85.44
67931;BME280;63902;52.000;5.954;2023-03-04T05:00:55;102118.03;;;3.77;85.29
67931;BME280;63902;52.000;5.954;2023-03-04T05:01:56;102117.16;;;3.76;85.42
67931;BME280;63902;52.000;5.954;2023-03-04T05:02:56;102105.75;;;3.70;85.80
67931;BME280;63902;52.000;5.954;2023-03-04T05:03:56;102110.97;;;3.71;85.62
67931;BME280;63902;52.000;5.954;2023-03-04T05:04:57;102114.47;;;3.70;85.71
67931;BME280;63902;52.000;5.954;2023-03-04T05:05:57;102111.84;;;3.69;85.79
67931;BME280;63902;52.000;5.954;2023-03-04T05:06:58;102117.06;;;3.69;86.30
67931;BME280;63902;52.000;5.954;2023-03-04T05:07:58;102116.19;;;3.65;86.00
67931;BME280;63902;52.000;5.954;2023-03-04T05:08:59;102118.84;;;3.68;86.39
67931;BME280;63902;52.000;5.954;2023-03-04T05:09:59;102117.09;;;3.67;86.13
67931;BME280;63902;52.000;5.954;2023-03-04T05:11:01;102115.31;;;3.66;86.20
67931;BME280;63902;52.000;5.954;2023-03-04T05:12:01;102118.81;;;3.65;86.42
67931;BME280;63902;52.000;5.954;2023-03-04T05:13:02;102117.06;;;3.64;86.46
67931;BME280;63902;52.000;5.954;2023-03-04T05:14:04;102123.19;;;3.65;86.83
67931;BME280;63902;52.000;5.954;2023-03-04T05:15:05;102105.63;;;3.56;86.87
67931;BME280;63902;52.000;5.954;2023-03-04T05:16:07;102117.03;;;3.63;87.13
67931;BME280;63902;52.000;5.954;2023-03-04T05:17:07;102116.16;;;3.62;87.20
67931;BME280;63902;52.000;5.954;2023-03-04T05:18:08;102103.88;;;3.56;86.94
67931;BME280;63902;52.000;5.954;2023-03-04T05:19:08;102117.88;;;3.60;86.62
67931;BME280;63902;52.000;5.954;2023-03-04T05:20:10;102124.03;;;3.62;87.03
67931;BME280;63902;52.000;5.954;2023-03-04T05:21:10;102117.00;;;3.59;87.10
67931;BME280;63902;52.000;5.954;2023-03-04T05:22:11;102112.66;;;3.62;86.83
67931;BME280;63902;52.000;5.954;2023-03-04T05:23:11;102117.00;;;3.61;86.85